createdAt,value
2019-05-22T00:00:47.621Z,34.80
2019-05-22T00:03:21.307Z,33.10
2019-05-22T00:05:56.800Z,31.85
2019-05-22T00:08:25.558Z,30.90
2019-05-22T00:10:59.697Z,30.55
2019-05-22T00:13:38.445Z,31.33
2019-05-22T00:16:40.393Z,30.37
2019-05-22T00:19:15.477Z,30.08
2019-05-22T00:21:57.532Z,29.87
2019-05-22T00:24:27.586Z,30.25
2019-05-22T00:27:04.472Z,31.05
2019-05-22T00:29:34.050Z,31.90
2019-05-22T00:32:07.452Z,32.35
2019-05-22T00:34:52.756Z,31.82
2019-05-22T00:37:23.383Z,32.42
2019-05-22T00:40:08.427Z,32.60
2019-05-22T00:42:41.247Z,34.15
2019-05-22T00:45:13.091Z,34.10
2019-05-22T00:47:44.726Z,33.92
2019-05-22T00:53:06.144Z,32.80
2019-05-22T00:56:04.084Z,34.15
2019-05-22T00:58:47.461Z,34.53
2019-05-22T01:01:23.575Z,33.90
2019-05-22T01:03:53.849Z,34.80
2019-05-22T01:06:58.343Z,33.50
2019-05-22T01:09:39.770Z,33.90
2019-05-22T01:12:16.250Z,34.95
2019-05-22T01:14:51.063Z,34.67
2019-05-22T01:18:09.998Z,34.43
2019-05-22T01:20:46.093Z,35.63
2019-05-22T01:23:32.991Z,32.80
2019-05-22T01:26:05.712Z,34.75
2019-05-22T01:28:37.278Z,33.83
2019-05-22T01:33:50.484Z,36.28
2019-05-22T01:36:22.166Z,36.80
2019-05-22T01:39:35.065Z,37.33
2019-05-22T01:42:06.943Z,36.80
2019-05-22T01:44:39.310Z,37.30
2019-05-22T01:47:17.832Z,36.55
2019-05-22T01:49:59.986Z,35.40
2019-05-22T01:52:31.264Z,37.42
2019-05-22T01:55:01.891Z,38.02
2019-05-22T01:57:31.277Z,38.78
2019-05-22T02:00:13.540Z,37.23
2019-05-22T02:03:31.198Z,38.25
2019-05-22T02:06:51.251Z,38.08
2019-05-22T02:09:28.768Z,36.60
2019-05-22T02:12:05.176Z,37.67
2019-05-22T02:14:44.578Z,37.63
2019-05-22T02:20:53.344Z,34.92
2019-05-22T02:24:05.086Z,35.05
2019-05-22T02:26:37.040Z,33.88
2019-05-22T02:29:10.888Z,34.67
2019-05-22T02:31:45.178Z,34.60
2019-05-22T02:34:17.181Z,34.33
2019-05-22T02:36:54.196Z,34.55
2019-05-22T02:39:30.696Z,34.95
2019-05-22T02:42:06.613Z,33.60
2019-05-22T02:45:22.567Z,31.57
2019-05-22T02:51:20.730Z,31.93
2019-05-22T02:53:52.027Z,32.50
2019-05-22T02:56:41.875Z,31.37
2019-05-22T03:00:01.964Z,32.30
2019-05-22T03:03:16.190Z,31.23
2019-05-22T03:05:50.939Z,31.15
2019-05-22T03:08:22.799Z,31.42
2019-05-22T03:10:55.463Z,31.10
2019-05-22T03:13:57.558Z,32.35
2019-05-22T03:16:32.893Z,29.82
2019-05-22T03:19:26.364Z,31.25
2019-05-22T03:21:57.391Z,30.30
2019-05-22T03:24:33.685Z,32.13
2019-05-22T03:27:05.203Z,29.65
2019-05-22T03:30:16.383Z,30.77
2019-05-22T03:32:48.442Z,30.63
2019-05-22T03:35:21.882Z,30.20
2019-05-22T03:37:51.840Z,29.95
2019-05-22T03:40:37.819Z,29.10
2019-05-22T03:43:15.248Z,30.02
2019-05-22T03:45:48.092Z,30.45
2019-05-22T03:48:23.749Z,30.15
2019-05-22T03:51:43.097Z,32.40
2019-05-22T03:54:15.156Z,33.30
2019-05-22T03:56:50.162Z,33.08
2019-05-22T03:59:34.572Z,31.95
2019-05-22T04:02:09.104Z,33.45
2019-05-22T04:04:41.213Z,31.07
2019-05-22T04:07:17.843Z,29.60
2019-05-22T04:09:48.748Z,30.17
2019-05-22T04:12:18.567Z,29.72
2019-05-22T04:14:55.855Z,30.30
2019-05-22T04:17:28.910Z,30.12
2019-05-22T04:20:10.886Z,30.10
2019-05-22T04:22:43.310Z,31.25
2019-05-22T04:25:21.831Z,32.30
2019-05-22T04:27:51.216Z,30.25
2019-05-22T04:30:20.492Z,29.98
2019-05-22T04:32:49.706Z,29.00
2019-05-22T04:35:24.601Z,29.57
2019-05-22T04:38:04.161Z,28.00
2019-05-22T04:41:19.301Z,28.40
2019-05-22T04:43:55.372Z,27.27
2019-05-22T04:46:27.283Z,28.50
2019-05-22T04:48:56.206Z,26.48
2019-05-22T04:51:26.563Z,26.95
2019-05-22T04:53:59.889Z,27.85
2019-05-22T04:56:38.461Z,26.65
2019-05-22T04:59:11.797Z,27.05
2019-05-22T05:01:48.438Z,26.52
2019-05-22T05:04:19.809Z,25.45
2019-05-22T05:06:56.717Z,25.65
2019-05-22T05:09:25.591Z,25.57
2019-05-22T05:11:56.981Z,25.32
2019-05-22T05:14:28.840Z,24.77
2019-05-22T05:17:10.032Z,22.27
2019-05-22T05:19:38.636Z,23.18
2019-05-22T05:22:19.203Z,21.90
2019-05-22T05:24:51.300Z,22.65
2019-05-22T05:29:51.001Z,22.95
2019-05-22T05:32:20.390Z,23.73
2019-05-22T05:34:55.251Z,22.73
2019-05-22T05:37:32.630Z,21.87
2019-05-22T05:40:10.116Z,23.40
2019-05-22T05:42:40.611Z,22.40
2019-05-22T05:45:15.690Z,22.87
2019-05-22T05:48:44.180Z,23.25
2019-05-22T05:51:18.852Z,24.12
2019-05-22T05:54:03.123Z,23.12
2019-05-22T05:57:10.315Z,22.77
2019-05-22T05:59:42.455Z,22.10
2019-05-22T06:02:23.725Z,22.17
2019-05-22T06:04:58.215Z,22.13
2019-05-22T06:07:29.250Z,21.50
2019-05-22T06:10:29.568Z,21.23
2019-05-22T06:13:05.300Z,21.87
2019-05-22T06:15:47.220Z,21.57
2019-05-22T06:18:31.916Z,21.68
2019-05-22T06:21:04.301Z,21.70
2019-05-22T06:23:40.879Z,23.22
2019-05-22T06:26:20.727Z,22.13
2019-05-22T06:28:55.233Z,19.73
2019-05-22T06:32:20.122Z,19.60
2019-05-22T06:34:48.799Z,19.42
2019-05-22T06:37:42.146Z,19.40
2019-05-22T06:40:21.239Z,19.00
2019-05-22T06:43:24.806Z,18.77
2019-05-22T06:45:59.598Z,18.07
2019-05-22T06:48:31.806Z,18.42
2019-05-22T06:51:18.557Z,17.73
2019-05-22T06:53:42.210Z,17.87
2019-05-22T06:56:32.116Z,18.17
2019-05-22T06:59:42.977Z,19.27
2019-05-22T07:02:13.959Z,18.12
2019-05-22T07:07:23.945Z,19.10
2019-05-22T07:09:59.451Z,18.42
2019-05-22T07:12:34.952Z,19.75
2019-05-22T07:15:11.026Z,19.10
2019-05-22T07:17:46.893Z,18.37
2019-05-22T07:20:18.313Z,18.32
2019-05-22T07:22:53.363Z,18.77
2019-05-22T07:25:22.879Z,17.35
2019-05-22T07:27:51.517Z,16.45
2019-05-22T07:30:23.603Z,16.37
2019-05-22T07:32:55.491Z,17.67
2019-05-22T07:36:04.763Z,16.85
2019-05-22T07:38:38.258Z,16.35
2019-05-22T07:41:08.471Z,17.92
2019-05-22T07:43:43.879Z,17.30
2019-05-22T07:46:14.505Z,17.82
2019-05-22T07:49:16.575Z,16.62
2019-05-22T07:52:09.651Z,17.07
2019-05-22T07:54:40.653Z,17.32
2019-05-22T08:00:12.860Z,17.37
2019-05-22T08:02:44.535Z,17.75
2019-05-22T08:05:17.684Z,16.97
2019-05-22T08:07:55.828Z,16.60
2019-05-22T08:10:28.243Z,17.10
2019-05-22T08:13:00.999Z,17.02
2019-05-22T08:16:02.742Z,18.05
2019-05-22T08:18:58.608Z,17.32
2019-05-22T08:21:34.604Z,16.32
2019-05-22T08:24:07.312Z,16.02
2019-05-22T08:26:53.957Z,16.52
2019-05-22T08:29:18.128Z,16.27
2019-05-22T08:31:48.402Z,14.28
2019-05-22T08:34:36.683Z,17.23
2019-05-22T08:37:39.736Z,16.10
2019-05-22T08:40:31.984Z,15.98
2019-05-22T08:43:03.625Z,14.93
2019-05-22T08:45:42.902Z,15.00
2019-05-22T08:48:18.709Z,14.15
2019-05-22T08:50:55.319Z,14.93
2019-05-22T08:53:25.024Z,14.20
2019-05-22T08:56:02.582Z,13.68
2019-05-22T08:58:36.794Z,13.88
2019-05-22T09:01:15.792Z,14.50
2019-05-22T09:03:50.306Z,12.93
2019-05-22T09:06:24.506Z,14.33
2019-05-22T09:08:55.896Z,13.32
2019-05-22T09:11:28.282Z,14.33
2019-05-22T09:14:09.034Z,14.13
2019-05-22T09:16:43.976Z,16.12
2019-05-22T09:19:16.935Z,15.30
2019-05-22T09:21:54.660Z,16.10
2019-05-22T09:24:30.631Z,16.12
2019-05-22T09:27:02.882Z,15.85
2019-05-22T09:29:34.106Z,15.45
2019-05-22T09:32:14.702Z,15.18
2019-05-22T09:34:46.364Z,14.23
2019-05-22T09:37:18.169Z,15.98
2019-05-22T09:40:38.729Z,16.62
2019-05-22T09:43:07.380Z,16.50
2019-05-22T09:45:39.034Z,15.93
2019-05-22T09:48:11.043Z,16.80
2019-05-22T09:50:50.620Z,15.85
2019-05-22T09:53:22.979Z,16.30
2019-05-22T09:56:02.784Z,14.33
2019-05-22T09:58:34.996Z,13.45
2019-05-22T10:01:10.945Z,13.10
2019-05-22T10:03:43.316Z,13.60
2019-05-22T10:06:12.693Z,13.55
2019-05-22T10:08:45.035Z,15.65
2019-05-22T10:11:21.618Z,15.05
2019-05-22T10:13:59.507Z,16.52
2019-05-22T10:16:34.213Z,16.23
2019-05-22T10:19:22.627Z,14.28
2019-05-22T10:21:51.462Z,15.43
2019-05-22T10:24:41.359Z,15.32
2019-05-22T10:27:16.885Z,13.10
2019-05-22T10:29:52.250Z,16.23
2019-05-22T10:32:48.988Z,14.90
2019-05-22T10:35:23.131Z,15.13
2019-05-22T10:37:55.121Z,15.70
2019-05-22T10:41:23.120Z,16.75
2019-05-22T10:43:58.544Z,17.52
2019-05-22T10:46:33.254Z,18.00
2019-05-22T10:49:07.856Z,17.00
2019-05-22T10:51:39.107Z,19.27
2019-05-22T10:54:10.919Z,18.50
2019-05-22T10:56:42.135Z,18.07
2019-05-22T10:59:15.964Z,19.50
2019-05-22T11:01:52.839Z,19.70
2019-05-22T11:04:27.477Z,20.77
2019-05-22T11:06:57.092Z,19.77
2019-05-22T11:12:52.100Z,19.62
2019-05-22T11:15:27.712Z,19.17
2019-05-22T11:18:02.869Z,18.65
2019-05-22T11:20:33.196Z,18.12
2019-05-22T11:23:04.273Z,17.02
2019-05-22T11:25:40.853Z,17.95
2019-05-22T11:28:13.897Z,15.25
2019-05-22T11:30:43.611Z,16.75
2019-05-22T11:33:18.059Z,13.65
2019-05-22T11:35:49.254Z,13.93
2019-05-22T11:38:20.956Z,14.03
2019-05-22T11:40:52.816Z,16.00
2019-05-22T11:43:24.832Z,11.33
2019-05-22T11:46:06.372Z,10.75
2019-05-22T11:48:41.236Z,12.15
2019-05-22T11:51:16.030Z,10.00
2019-05-22T11:54:07.449Z,9.93
2019-05-22T11:56:23.724Z,10.48
2019-05-22T11:58:59.173Z,11.12
2019-05-22T12:02:09.251Z,10.72
2019-05-22T12:04:48.281Z,8.90
2019-05-22T12:07:17.087Z,9.00
2019-05-22T12:09:48.752Z,10.00
2019-05-22T12:12:26.428Z,11.12
2019-05-22T12:15:02.101Z,10.98
2019-05-22T12:17:39.389Z,9.63
2019-05-22T12:20:11.410Z,9.23
2019-05-22T12:22:41.623Z,9.15
2019-05-22T12:25:24.009Z,8.65
2019-05-22T12:27:53.152Z,8.23
2019-05-22T12:30:26.512Z,10.00
2019-05-22T12:33:01.542Z,8.60
2019-05-22T12:35:42.307Z,7.92
2019-05-22T12:38:12.893Z,6.72
2019-05-22T12:40:47.399Z,6.75
2019-05-22T12:43:16.977Z,7.22
2019-05-22T12:45:45.922Z,7.08
2019-05-22T12:48:21.095Z,7.00
2019-05-22T12:50:59.616Z,8.15
2019-05-22T12:53:30.214Z,6.87
2019-05-22T12:56:02.055Z,7.00
2019-05-22T12:58:35.115Z,6.78
2019-05-22T13:01:06.320Z,6.50
2019-05-22T13:03:41.346Z,6.58
2019-05-22T13:06:16.830Z,6.80
2019-05-22T13:09:17.473Z,8.08
2019-05-22T13:11:52.444Z,7.08
2019-05-22T13:14:27.912Z,6.62
2019-05-22T13:17:01.052Z,6.72
2019-05-22T13:19:37.568Z,7.25
2019-05-22T13:22:12.762Z,6.90
2019-05-22T13:24:44.024Z,8.30
2019-05-22T13:27:22.150Z,8.23
2019-05-22T13:29:52.714Z,8.03
2019-05-22T13:32:35.558Z,9.10
2019-05-22T13:35:08.025Z,9.10
2019-05-22T13:37:56.776Z,8.55
2019-05-22T13:40:33.494Z,10.00
2019-05-22T13:43:28.731Z,9.83
2019-05-22T13:46:30.302Z,9.75
2019-05-22T13:49:07.101Z,12.18
2019-05-22T13:51:35.973Z,11.97
2019-05-22T13:54:14.929Z,12.10
2019-05-22T13:56:46.468Z,12.78
2019-05-22T13:59:24.631Z,14.95
2019-05-22T14:01:59.313Z,14.58
2019-05-22T14:05:14.041Z,13.85
2019-05-22T14:07:49.826Z,12.95
2019-05-22T14:10:24.405Z,13.80
2019-05-22T14:13:30.216Z,13.25
2019-05-22T14:16:19.035Z,11.63
2019-05-22T14:19:00.156Z,9.78
2019-05-22T14:25:48.856Z,7.63
2019-05-22T14:28:22.690Z,8.80
2019-05-22T14:30:52.020Z,8.75
2019-05-22T14:33:28.210Z,6.20
2019-05-22T14:37:07.246Z,4.60
2019-05-22T14:39:37.986Z,4.45
2019-05-22T14:42:08.444Z,3.37
2019-05-22T14:44:50.489Z,2.98
2019-05-22T14:47:22.408Z,2.80
2019-05-22T14:50:08.583Z,2.62
2019-05-22T14:52:42.101Z,1.80
2019-05-22T14:56:10.360Z,1.80
